createdAt,value
2023-07-09T00:01:18.385Z,67.60
2023-07-09T00:03:49.698Z,63.57
2023-07-09T00:06:19.306Z,66.28
2023-07-09T00:08:49.095Z,68.76
2023-07-09T00:11:17.718Z,67.03
2023-07-09T00:13:45.664Z,69.23
2023-07-09T00:16:18.239Z,67.60
2023-07-09T00:18:45.895Z,65.75
2023-07-09T00:21:14.477Z,67.57
2023-07-09T00:23:42.884Z,64.04
2023-07-09T00:26:16.885Z,65.84
2023-07-09T00:28:45.205Z,68.94
2023-07-09T00:31:17.581Z,67.88
2023-07-09T00:33:47.674Z,69.69
2023-07-09T00:36:18.162Z,69.58
2023-07-09T00:38:49.257Z,69.55
2023-07-09T00:41:20.335Z,70.40
2023-07-09T00:43:49.001Z,70.02
2023-07-09T00:46:24.821Z,69.39
2023-07-09T00:48:59.102Z,69.02
2023-07-09T00:51:27.476Z,68.23
2023-07-09T00:53:59.890Z,67.80
2023-07-09T00:56:35.236Z,68.94
2023-07-09T00:59:05.698Z,69.09
2023-07-09T01:01:34.994Z,67.15
2023-07-09T01:04:04.803Z,68.66
2023-07-09T01:06:37.449Z,70.60
2023-07-09T01:09:05.512Z,71.10
2023-07-09T01:11:34.390Z,71.68
2023-07-09T01:14:04.251Z,70.61
2023-07-09T01:16:58.287Z,68.97
2023-07-09T01:19:27.460Z,73.62
2023-07-09T01:22:03.136Z,76.96
2023-07-09T01:24:49.024Z,73.47
2023-07-09T01:27:18.631Z,69.03
2023-07-09T01:29:50.228Z,69.20
2023-07-09T01:32:19.875Z,71.54
2023-07-09T01:34:49.136Z,73.19
2023-07-09T01:37:23.124Z,73.13
2023-07-09T01:39:51.717Z,71.07
2023-07-09T01:42:22.845Z,73.11
2023-07-09T01:44:51.948Z,75.25
2023-07-09T01:47:19.527Z,75.27
2023-07-09T01:49:47.679Z,72.55
2023-07-09T01:52:17.394Z,71.92
2023-07-09T01:54:47.471Z,74.21
2023-07-09T01:57:16.162Z,72.60
2023-07-09T01:59:43.408Z,73.32
2023-07-09T02:02:19.542Z,71.22
2023-07-09T02:04:51.769Z,70.23
2023-07-09T02:07:20.711Z,75.07
2023-07-09T02:09:48.244Z,75.19
2023-07-09T02:12:16.571Z,79.83
2023-07-09T02:14:45.471Z,75.22
2023-07-09T02:17:14.471Z,72.53
2023-07-09T02:19:42.077Z,73.58
2023-07-09T02:22:09.784Z,74.38
2023-07-09T02:24:37.517Z,73.41
2023-07-09T02:27:07.739Z,74.98
2023-07-09T02:29:35.678Z,74.47
2023-07-09T02:32:03.644Z,72.09
2023-07-09T02:34:32.097Z,71.89
2023-07-09T02:37:00.415Z,73.28
2023-07-09T02:39:28.444Z,73.75
2023-07-09T02:41:55.949Z,74.77
2023-07-09T02:44:23.609Z,73.97
2023-07-09T02:46:50.995Z,73.88
2023-07-09T02:49:19.441Z,72.94
2023-07-09T02:51:46.755Z,73.43
2023-07-09T02:54:14.213Z,75.23
2023-07-09T02:56:41.715Z,73.92
2023-07-09T02:59:09.210Z,74.85
2023-07-09T03:01:37.019Z,81.62
2023-07-09T03:04:04.886Z,83.78
2023-07-09T03:06:34.953Z,83.77
2023-07-09T03:09:03.607Z,81.50
2023-07-09T03:11:32.786Z,80.42
2023-07-09T03:14:01.186Z,76.23
2023-07-09T03:16:30.388Z,76.23
2023-07-09T03:18:57.901Z,82.77
2023-07-09T03:21:26.955Z,81.96
2023-07-09T03:23:55.021Z,77.53
2023-07-09T03:26:22.751Z,76.02
2023-07-09T03:28:50.344Z,77.64
2023-07-09T03:31:17.720Z,77.62
2023-07-09T03:33:45.925Z,81.64
2023-07-09T03:36:13.303Z,80.34
2023-07-09T03:38:40.680Z,75.42
2023-07-09T03:41:08.206Z,74.48
2023-07-09T03:43:35.589Z,79.12
2023-07-09T03:46:03.815Z,80.73
2023-07-09T03:48:31.960Z,82.55
2023-07-09T03:50:59.398Z,80.75
2023-07-09T03:53:26.744Z,82.20
2023-07-09T03:55:55.752Z,91.25
2023-07-09T03:58:25.070Z,93.20
2023-07-09T04:00:52.673Z,85.66
2023-07-09T04:03:20.067Z,77.13
2023-07-09T04:05:48.504Z,73.91
2023-07-09T04:08:15.894Z,72.04
2023-07-09T04:10:43.280Z,73.78
2023-07-09T04:13:11.610Z,81.36
2023-07-09T04:15:39.170Z,86.58
2023-07-09T04:18:06.714Z,82.92
2023-07-09T04:20:36.130Z,80.02
2023-07-09T04:23:03.731Z,78.83
2023-07-09T04:25:31.336Z,77.08
2023-07-09T04:27:58.863Z,81.57
2023-07-09T04:30:26.357Z,82.69
2023-07-09T04:32:53.840Z,81.37
2023-07-09T04:35:21.301Z,83.88
2023-07-09T04:37:49.166Z,80.58
2023-07-09T04:40:19.542Z,82.87
2023-07-09T04:42:47.071Z,84.87
2023-07-09T04:45:15.868Z,79.34
2023-07-09T04:47:43.385Z,78.17
2023-07-09T04:50:12.692Z,79.82
2023-07-09T04:52:40.242Z,84.27
2023-07-09T04:55:09.926Z,83.17
2023-07-09T04:57:37.573Z,77.43
2023-07-09T05:00:06.422Z,80.31
2023-07-09T05:02:34.442Z,75.73
2023-07-09T05:05:01.985Z,80.08
2023-07-09T05:07:29.645Z,80.71
2023-07-09T05:09:57.072Z,79.33
2023-07-09T05:12:27.724Z,78.82
2023-07-09T05:14:57.630Z,79.58
2023-07-09T05:17:25.027Z,78.97
2023-07-09T05:19:52.530Z,76.88
2023-07-09T05:22:19.892Z,78.04
2023-07-09T05:24:47.445Z,75.34
2023-07-09T05:27:14.867Z,75.02
2023-07-09T05:29:42.372Z,71.23
2023-07-09T05:32:09.741Z,73.20
2023-07-09T05:34:37.497Z,75.67
2023-07-09T05:37:05.026Z,74.55
2023-07-09T05:39:32.346Z,75.37
2023-07-09T05:41:59.732Z,73.62
2023-07-09T05:44:27.243Z,72.63
2023-07-09T05:46:54.717Z,73.26
2023-07-09T05:49:22.134Z,70.47
2023-07-09T05:51:49.651Z,70.18
2023-07-09T05:54:17.139Z,69.69
2023-07-09T05:56:44.566Z,68.85
2023-07-09T05:59:12.018Z,70.13
2023-07-09T06:01:39.412Z,67.91
2023-07-09T06:04:07.796Z,68.83
2023-07-09T06:06:35.332Z,69.83
2023-07-09T06:09:02.670Z,70.42
2023-07-09T06:11:30.601Z,70.14
2023-07-09T06:13:58.045Z,68.62
2023-07-09T06:16:25.460Z,68.17
2023-07-09T06:18:52.894Z,68.44
2023-07-09T06:21:20.429Z,66.77
2023-07-09T06:23:47.880Z,66.43
2023-07-09T06:26:15.203Z,67.25
2023-07-09T06:28:42.715Z,68.63
2023-07-09T06:31:10.456Z,68.35
2023-07-09T06:33:37.968Z,68.00
2023-07-09T06:36:06.255Z,65.60
2023-07-09T06:38:34.680Z,65.19
2023-07-09T06:41:02.182Z,64.94
2023-07-09T06:43:29.665Z,65.39
2023-07-09T06:45:59.402Z,64.06
2023-07-09T06:48:29.036Z,65.03
2023-07-09T06:50:57.481Z,65.62
2023-07-09T06:53:25.548Z,65.28
2023-07-09T06:55:56.762Z,64.87
2023-07-09T06:58:26.842Z,64.28
2023-07-09T07:00:54.153Z,64.83
2023-07-09T07:03:22.614Z,63.87
2023-07-09T07:05:55.066Z,64.26
2023-07-09T07:08:26.332Z,67.30
2023-07-09T07:11:03.630Z,71.42
2023-07-09T07:13:32.679Z,73.56
2023-07-09T07:16:00.465Z,71.65
2023-07-09T07:18:28.046Z,66.68
2023-07-09T07:20:55.592Z,65.45
2023-07-09T07:23:23.152Z,68.06
2023-07-09T07:25:50.657Z,65.44
2023-07-09T07:28:18.032Z,67.38
2023-07-09T07:30:45.860Z,69.07
2023-07-09T07:33:15.181Z,69.88
2023-07-09T07:36:00.446Z,66.45
2023-07-09T07:38:30.239Z,65.05
2023-07-09T07:40:57.687Z,67.16
2023-07-09T07:43:25.133Z,69.62
2023-07-09T07:45:52.461Z,67.94
2023-07-09T07:48:20.199Z,67.74
2023-07-09T07:50:49.317Z,68.94
2023-07-09T07:53:16.937Z,66.64
2023-07-09T07:55:44.498Z,67.22
2023-07-09T07:58:13.922Z,72.98
2023-07-09T08:00:41.617Z,70.15
2023-07-09T08:03:09.224Z,68.88
2023-07-09T08:05:37.016Z,69.06
2023-07-09T08:08:04.592Z,69.39
2023-07-09T08:10:32.044Z,70.40
2023-07-09T08:12:59.430Z,72.40
2023-07-09T08:15:27.245Z,71.75
2023-07-09T08:17:54.726Z,71.11
2023-07-09T08:20:22.235Z,73.78
2023-07-09T08:22:49.647Z,73.09
2023-07-09T08:25:17.093Z,72.36
2023-07-09T08:27:44.531Z,72.49
2023-07-09T08:30:12.172Z,72.40
2023-07-09T08:32:39.688Z,74.81
2023-07-09T08:35:34.065Z,74.17
2023-07-09T08:37:54.840Z,77.16
2023-07-09T08:40:22.429Z,75.62
2023-07-09T08:43:00.766Z,73.09
2023-07-09T08:45:50.841Z,74.79
2023-07-09T08:48:33.462Z,72.51
2023-07-09T08:51:18.669Z,72.16
2023-07-09T08:53:58.907Z,76.58
2023-07-09T08:56:28.385Z,76.59
2023-07-09T08:58:57.561Z,74.78
2023-07-09T09:01:51.127Z,77.11
2023-07-09T09:04:35.629Z,77.29
2023-07-09T09:07:28.657Z,77.47
2023-07-09T09:10:02.583Z,76.16
2023-07-09T09:13:07.781Z,74.80
2023-07-09T09:15:35.412Z,73.80
2023-07-09T09:18:20.636Z,74.39
2023-07-09T09:20:58.127Z,74.27
2023-07-09T09:23:33.124Z,73.57
2023-07-09T09:26:13.125Z,72.91
2023-07-09T09:28:41.308Z,69.94
2023-07-09T09:31:12.281Z,67.59
2023-07-09T09:33:45.053Z,66.44
2023-07-09T09:36:24.986Z,67.50
2023-07-09T09:38:52.468Z,67.06
2023-07-09T09:41:22.022Z,67.59
2023-07-09T09:43:50.538Z,67.64
2023-07-09T09:46:21.074Z,68.23
2023-07-09T09:48:50.617Z,68.33
2023-07-09T09:51:19.296Z,69.42
2023-07-09T09:53:51.130Z,72.45
2023-07-09T09:56:22.808Z,75.93
2023-07-09T09:58:54.476Z,74.02
2023-07-09T10:01:27.975Z,73.94
2023-07-09T10:03:58.007Z,72.65
2023-07-09T10:06:35.701Z,70.85
2023-07-09T10:09:18.003Z,68.14
2023-07-09T10:11:48.000Z,67.39
2023-07-09T10:14:25.530Z,69.73
2023-07-09T10:16:58.647Z,71.33
2023-07-09T10:19:44.356Z,71.64
2023-07-09T10:22:21.460Z,72.21
2023-07-09T10:25:01.148Z,71.11
2023-07-09T10:27:44.621Z,70.64
2023-07-09T10:30:22.631Z,71.73
2023-07-09T10:33:12.568Z,72.37
2023-07-09T10:35:45.724Z,73.35
2023-07-09T10:38:18.818Z,74.16
2023-07-09T10:40:55.833Z,75.48
2023-07-09T10:43:38.600Z,74.15
2023-07-09T10:46:12.989Z,73.66
2023-07-09T10:48:46.683Z,74.30
2023-07-09T10:51:22.704Z,75.13
2023-07-09T10:53:56.060Z,74.11
2023-07-09T10:56:27.530Z,73.78
2023-07-09T10:59:17.538Z,76.63
2023-07-09T11:01:48.909Z,77.54
2023-07-09T11:04:26.687Z,76.58
2023-07-09T11:06:56.832Z,74.48
2023-07-09T11:09:26.397Z,72.76
2023-07-09T11:11:56.619Z,74.19
2023-07-09T11:14:41.979Z,73.13
2023-07-09T11:17:15.548Z,72.24
2023-07-09T11:19:44.964Z,73.24
2023-07-09T11:22:19.873Z,71.35
2023-07-09T11:24:51.905Z,70.41
2023-07-09T11:27:28.996Z,68.97
2023-07-09T11:30:17.108Z,72.78
2023-07-09T11:32:49.418Z,74.58
2023-07-09T11:35:26.008Z,72.38
2023-07-09T11:37:54.375Z,70.13
2023-07-09T11:40:22.982Z,68.63
2023-07-09T11:42:55.300Z,68.60
2023-07-09T11:45:29.754Z,67.81
2023-07-09T11:48:26.649Z,66.26
2023-07-09T11:50:55.747Z,66.05
2023-07-09T11:53:29.161Z,65.52
2023-07-09T11:55:56.790Z,66.61
2023-07-09T11:58:24.137Z,65.63
2023-07-09T12:00:53.569Z,66.07
2023-07-09T12:03:38.454Z,65.01
2023-07-09T12:06:14.989Z,63.73
2023-07-09T12:08:43.645Z,63.10
2023-07-09T12:11:31.180Z,62.25
2023-07-09T12:14:05.168Z,64.02
2023-07-09T12:16:36.788Z,63.67
2023-07-09T12:19:04.527Z,62.89
2023-07-09T12:21:34.876Z,62.28
2023-07-09T12:24:03.560Z,62.17
2023-07-09T12:26:32.174Z,61.63
2023-07-09T12:29:00.044Z,61.30
2023-07-09T12:31:30.468Z,59.96
2023-07-09T12:33:59.725Z,60.17
2023-07-09T12:36:28.558Z,59.54
2023-07-09T12:39:03.965Z,59.33
2023-07-09T12:41:43.159Z,58.58
2023-07-09T12:44:22.880Z,57.55
2023-07-09T12:46:52.231Z,58.25
2023-07-09T12:49:31.158Z,59.20
2023-07-09T12:51:59.793Z,59.24
2023-07-09T12:54:29.700Z,56.60
2023-07-09T12:56:57.699Z,57.87
2023-07-09T12:59:29.947Z,57.16
2023-07-09T13:02:02.989Z,55.46
2023-07-09T13:04:40.055Z,55.54
2023-07-09T13:07:27.598Z,55.02
2023-07-09T13:09:56.667Z,55.30
2023-07-09T13:12:34.043Z,54.34
2023-07-09T13:15:01.741Z,52.82
2023-07-09T13:17:31.637Z,53.93
2023-07-09T13:20:00.365Z,52.49
2023-07-09T13:22:29.420Z,52.45
2023-07-09T13:24:56.966Z,52.34
2023-07-09T13:27:25.438Z,52.61
2023-07-09T13:29:53.039Z,52.41
2023-07-09T13:32:20.367Z,52.32
2023-07-09T13:34:47.776Z,53.17
2023-07-09T13:37:17.058Z,52.97
2023-07-09T13:39:46.594Z,52.77
2023-07-09T13:42:18.014Z,51.38
2023-07-09T13:44:47.099Z,51.21
2023-07-09T13:47:20.141Z,51.81
2023-07-09T13:49:50.981Z,51.89
2023-07-09T13:52:21.949Z,51.43
2023-07-09T13:54:49.483Z,50.00
2023-07-09T13:57:21.118Z,50.85
2023-07-09T13:59:49.227Z,49.19
2023-07-09T14:02:32.787Z,52.21
2023-07-09T14:05:03.377Z,52.97
2023-07-09T14:07:36.495Z,54.95
2023-07-09T14:10:06.780Z,52.29
2023-07-09T14:12:42.956Z,50.33
2023-07-09T14:15:16.428Z,54.29
2023-07-09T14:17:45.128Z,49.40
2023-07-09T14:20:15.084Z,49.99
2023-07-09T14:22:43.967Z,51.02
2023-07-09T14:25:23.570Z,51.11
2023-07-09T14:27:52.041Z,55.15
2023-07-09T14:30:23.613Z,51.04
2023-07-09T14:32:52.309Z,50.71
2023-07-09T14:35:24.668Z,51.25
2023-07-09T14:37:53.453Z,50.27
2023-07-09T14:40:22.668Z,50.50
2023-07-09T14:42:50.792Z,51.28
2023-07-09T14:45:27.123Z,51.76
2023-07-09T14:47:54.921Z,50.90
2023-07-09T14:50:23.947Z,51.09
2023-07-09T14:52:51.345Z,51.25
2023-07-09T14:55:20.761Z,52.24
2023-07-09T14:57:49.368Z,52.20
2023-07-09T15:00:21.503Z,53.75
2023-07-09T15:02:51.742Z,52.48
2023-07-09T15:05:22.067Z,52.56
2023-07-09T15:07:50.051Z,53.62
2023-07-09T15:10:30.395Z,53.45
2023-07-09T15:12:57.968Z,54.74
2023-07-09T15:15:30.552Z,53.78
2023-07-09T15:18:01.405Z,53.22
2023-07-09T15:20:31.354Z,52.61
2023-07-09T15:22:59.109Z,52.57
2023-07-09T15:25:28.614Z,53.15
2023-07-09T15:27:59.139Z,53.53
2023-07-09T15:30:28.850Z,52.96
2023-07-09T15:33:00.387Z,53.51
2023-07-09T15:35:36.766Z,53.80
2023-07-09T15:38:21.561Z,54.02
2023-07-09T15:40:49.776Z,53.62
2023-07-09T15:43:17.790Z,53.34
2023-07-09T15:45:47.257Z,54.44
2023-07-09T15:48:23.948Z,54.56
2023-07-09T15:50:51.912Z,54.06
2023-07-09T15:53:22.910Z,53.50
2023-07-09T15:55:51.940Z,55.10
2023-07-09T15:58:28.117Z,55.39
2023-07-09T16:00:55.599Z,55.78
2023-07-09T16:03:23.484Z,56.37
2023-07-09T16:05:51.761Z,56.40
2023-07-09T16:08:19.220Z,56.51
2023-07-09T16:10:46.732Z,57.41
2023-07-09T16:13:22.532Z,57.64
2023-07-09T16:15:50.765Z,57.39
2023-07-09T16:18:19.088Z,57.25
2023-07-09T16:20:47.276Z,57.19
2023-07-09T16:23:20.554Z,57.16
2023-07-09T16:25:49.430Z,57.01
2023-07-09T16:28:20.517Z,57.51
2023-07-09T16:30:49.861Z,56.63
2023-07-09T16:33:17.332Z,57.19
2023-07-09T16:35:45.092Z,56.93
2023-07-09T16:38:13.244Z,56.71
2023-07-09T16:40:41.202Z,58.18
2023-07-09T16:43:16.752Z,57.93
2023-07-09T16:45:44.862Z,58.77
2023-07-09T16:48:23.780Z,58.62
2023-07-09T16:50:53.714Z,58.68
2023-07-09T16:53:22.598Z,58.80
2023-07-09T16:55:50.727Z,58.92
2023-07-09T16:58:37.682Z,58.88
2023-07-09T17:01:06.881Z,58.82
2023-07-09T17:03:34.708Z,58.28
2023-07-09T17:06:02.309Z,57.63
2023-07-09T17:08:29.832Z,57.73
2023-07-09T17:10:59.310Z,57.72
2023-07-09T17:13:31.700Z,56.99
2023-07-09T17:15:59.172Z,56.37
2023-07-09T17:18:30.243Z,56.30
2023-07-09T17:21:00.576Z,56.42
2023-07-09T17:23:30.604Z,56.29
2023-07-09T17:25:58.303Z,56.36
2023-07-09T17:28:29.119Z,57.28
2023-07-09T17:30:57.706Z,57.31
2023-07-09T17:33:25.698Z,57.44
2023-07-09T17:35:55.163Z,57.46
2023-07-09T17:38:35.030Z,57.50
2023-07-09T17:41:02.693Z,57.81
2023-07-09T17:43:30.187Z,57.69
2023-07-09T17:45:57.660Z,57.88
2023-07-09T17:48:31.048Z,56.89
2023-07-09T17:50:59.185Z,56.81
2023-07-09T17:53:29.758Z,56.43
2023-07-09T17:55:57.976Z,58.32
2023-07-09T17:58:34.592Z,58.06
2023-07-09T18:01:04.339Z,57.83
2023-07-09T18:03:32.392Z,56.73
2023-07-09T18:06:00.312Z,58.00
2023-07-09T18:08:27.820Z,58.06
2023-07-09T18:10:55.544Z,57.06
2023-07-09T18:13:26.569Z,58.45
2023-07-09T18:15:55.596Z,57.35
2023-07-09T18:18:23.301Z,57.84
2023-07-09T18:20:51.923Z,56.75
2023-07-09T18:23:22.500Z,58.70
2023-07-09T18:25:50.997Z,58.86
2023-07-09T18:28:31.774Z,58.05
2023-07-09T18:31:11.848Z,58.29
2023-07-09T18:33:44.994Z,58.08
2023-07-09T18:36:12.618Z,59.35
2023-07-09T18:38:40.183Z,60.07
2023-07-09T18:41:15.595Z,59.73
2023-07-09T18:43:43.101Z,59.81
2023-07-09T18:46:13.779Z,60.00
2023-07-09T18:48:41.178Z,60.32
2023-07-09T18:51:12.029Z,61.02
2023-07-09T18:53:40.494Z,60.64
2023-07-09T18:56:08.090Z,61.17
2023-07-09T18:58:37.185Z,59.99
2023-07-09T19:01:06.803Z,62.20
2023-07-09T19:03:36.981Z,61.36
2023-07-09T19:06:05.395Z,60.75
2023-07-09T19:08:35.931Z,59.44
2023-07-09T19:11:03.940Z,59.86
2023-07-09T19:13:31.393Z,60.21
2023-07-09T19:16:03.457Z,60.36
2023-07-09T19:18:34.609Z,60.33
2023-07-09T19:21:03.737Z,59.47
2023-07-09T19:23:31.169Z,61.32
2023-07-09T19:25:58.723Z,59.86
2023-07-09T19:28:26.286Z,59.36
2023-07-09T19:30:54.641Z,58.98
2023-07-09T19:33:25.358Z,59.81
2023-07-09T19:35:53.073Z,60.18
2023-07-09T19:38:20.648Z,60.09
2023-07-09T19:40:48.139Z,59.07
2023-07-09T19:43:15.507Z,59.98
2023-07-09T19:45:45.447Z,59.58
2023-07-09T19:48:20.041Z,58.97
2023-07-09T19:50:51.508Z,60.02
2023-07-09T19:53:21.268Z,60.13
2023-07-09T19:55:49.248Z,60.54
2023-07-09T19:58:16.803Z,60.32
2023-07-09T20:00:45.956Z,61.67
2023-07-09T20:03:24.038Z,61.80
2023-07-09T20:05:51.799Z,60.47
2023-07-09T20:08:20.441Z,60.29
2023-07-09T20:10:48.617Z,58.67
2023-07-09T20:13:27.512Z,59.00
2023-07-09T20:15:55.914Z,58.96
2023-07-09T20:18:23.855Z,61.25
2023-07-09T20:20:56.765Z,61.39
2023-07-09T20:23:25.120Z,59.62
2023-07-09T20:25:54.490Z,59.56
2023-07-09T20:28:24.204Z,58.84
2023-07-09T20:30:52.691Z,60.26
2023-07-09T20:33:20.541Z,59.40
2023-07-09T20:35:47.962Z,57.77
2023-07-09T20:38:18.415Z,58.36
2023-07-09T20:40:46.504Z,56.97
2023-07-09T20:43:37.477Z,58.46
2023-07-09T20:46:05.175Z,57.18
2023-07-09T20:48:33.542Z,56.75
2023-07-09T20:51:01.084Z,58.24
2023-07-09T20:53:28.583Z,57.53
2023-07-09T20:55:58.452Z,56.22
2023-07-09T20:58:27.253Z,58.81
2023-07-09T21:00:55.392Z,59.33
2023-07-09T21:03:26.078Z,57.35
2023-07-09T21:05:54.139Z,58.76
2023-07-09T21:08:24.346Z,58.83
2023-07-09T21:10:52.061Z,61.27
2023-07-09T21:13:22.693Z,61.43
2023-07-09T21:15:53.190Z,64.85
2023-07-09T21:18:22.308Z,62.28
2023-07-09T21:20:49.821Z,60.41
2023-07-09T21:23:20.763Z,63.55
2023-07-09T21:25:48.878Z,58.79
2023-07-09T21:28:16.508Z,58.13
2023-07-09T21:30:45.044Z,57.36
2023-07-09T21:33:18.413Z,58.71
2023-07-09T21:35:47.272Z,57.07
2023-07-09T21:38:20.178Z,57.43
2023-07-09T21:40:50.131Z,57.47
2023-07-09T21:43:17.498Z,56.54
2023-07-09T21:45:45.572Z,56.80
2023-07-09T21:48:17.378Z,57.62
2023-07-09T21:50:44.920Z,57.04
2023-07-09T21:53:23.482Z,57.94
2023-07-09T21:55:59.320Z,58.80
2023-07-09T21:58:26.768Z,59.21
2023-07-09T22:00:56.496Z,59.45
2023-07-09T22:03:24.778Z,59.01
2023-07-09T22:05:52.261Z,58.64
2023-07-09T22:08:21.434Z,58.63
2023-07-09T22:10:49.246Z,58.64
2023-07-09T22:13:18.312Z,57.67
2023-07-09T22:15:46.049Z,58.21
2023-07-09T22:18:18.610Z,58.19
2023-07-09T22:20:46.488Z,58.13
2023-07-09T22:23:22.303Z,58.09
2023-07-09T22:25:50.966Z,57.58
2023-07-09T22:28:19.690Z,57.99
2023-07-09T22:30:47.740Z,57.85
2023-07-09T22:33:15.629Z,57.77
2023-07-09T22:35:43.156Z,58.12
2023-07-09T22:38:19.095Z,57.61
2023-07-09T22:40:46.759Z,58.43
2023-07-09T22:43:14.203Z,57.51
2023-07-09T22:45:44.015Z,58.10
2023-07-09T22:48:15.389Z,57.81
2023-07-09T22:50:43.449Z,57.50
2023-07-09T22:53:14.738Z,57.22
2023-07-09T22:55:45.167Z,57.61
2023-07-09T22:58:13.866Z,57.10
2023-07-09T23:01:03.557Z,57.27
2023-07-09T23:03:36.468Z,56.25
2023-07-09T23:06:16.113Z,55.66
2023-07-09T23:08:44.054Z,55.18
2023-07-09T23:11:24.634Z,54.17
2023-07-09T23:13:52.318Z,53.47
2023-07-09T23:16:22.186Z,53.65
2023-07-09T23:18:49.674Z,53.06
2023-07-09T23:21:21.849Z,52.52
2023-07-09T23:23:50.917Z,53.75
2023-07-09T23:26:18.895Z,53.88
2023-07-09T23:28:46.869Z,53.54
2023-07-09T23:31:25.038Z,53.60
2023-07-09T23:33:52.895Z,53.74
2023-07-09T23:36:20.406Z,54.19
2023-07-09T23:38:48.092Z,54.18
2023-07-09T23:41:23.875Z,54.14
2023-07-09T23:43:51.828Z,53.92
2023-07-09T23:46:20.194Z,53.81
2023-07-09T23:48:51.366Z,54.11
2023-07-09T23:51:28.240Z,53.62
2023-07-09T23:53:55.583Z,54.11
2023-07-09T23:56:33.951Z,54.40
2023-07-09T23:59:02.008Z,54.59
